Time;durP1;ratioP1;P1;durP2;ratioP2;P2;SDS_P1;SDS_P2;PMS_P1;PMS_P2;Temp;Humidity;BMP_temperature;BMP_pressure;BME280_temperature;BME280_humidity;BME280_pressure;Samples;Min_cycle;Max_cycle;Signal;HPM_P1;HPM_P2
2021/12/18 00:00:11;;;;;;;;;;;20.60;43.20;;;;;;677149;29;1471;-85
2021/12/18 00:00:33;;;;;;;;;;;20.60;43.30;;;;;;675609;29;1518;-82
2021/12/18 00:01:01;;;;;;;;;;;20.60;44.30;;;;;;676074;29;1466;-85
2021/12/18 00:01:23;;;;;;;;;;;20.60;43.20;;;;;;677699;29;1290;-84
2021/12/18 00:01:43;;;;;;;;;;;20.60;43.10;;;;;;679555;29;1454;-84
2021/12/18 00:02:04;;;;;;;;;;;20.60;43.20;;;;;;681660;29;1455;-85
2021/12/18 00:02:25;;;;;;;;;;;20.60;43.20;;;;;;681479;28;1408;-84
2021/12/18 00:02:47;;;;;;;;;;;20.60;43.20;;;;;;683025;28;1356;-84
2021/12/18 00:03:07;;;;;;;;;;;20.60;43.10;;;;;;682199;29;1391;-86
2021/12/18 00:03:28;;;;;;;;;;;20.60;43.10;;;;;;682512;28;1339;-85
2021/12/18 00:03:51;;;;;;;;;;;20.60;43.20;;;;;;682095;28;1569;-85
2021/12/18 00:04:12;;;;;;;;;;;20.60;43.20;;;;;;680183;29;1526;-87
2021/12/18 00:04:35;;;;;;;;;;;20.60;43.10;;;;;;682592;28;1396;-84
2021/12/18 00:04:56;;;;;;;;;;;20.60;43.10;;;;;;682222;28;1446;-85
2021/12/18 00:05:20;;;;;;;;;;;20.60;43.10;;;;;;683261;29;1488;-84
2021/12/18 00:05:41;;;;;;;;;;;20.60;43.20;;;;;;681808;29;1454;-86
2021/12/18 00:06:02;;;;;;;;;;;20.60;43.10;;;;;;684945;28;1326;-84
2021/12/18 00:06:22;;;;;;;;;;;20.60;43.20;;;;;;685662;28;1388;-86
2021/12/18 00:06:43;;;;;;;;;;;20.60;43.20;;;;;;682561;28;1511;-85
2021/12/18 00:07:06;;;;;;;;;;;20.60;43.10;;;;;;684546;28;1434;-86
2021/12/18 00:07:26;;;;;;;;;;;20.60;43.00;;;;;;683435;28;1302;-86
2021/12/18 00:07:47;;;;;;;;;;;20.60;43.20;;;;;;682356;28;1404;-85
2021/12/18 00:08:11;;;;;;;;;;;20.60;43.10;;;;;;683669;29;1633;-83
2021/12/18 00:08:32;;;;;;;;;;;20.60;43.10;;;;;;681014;29;1556;-84
2021/12/18 00:08:53;;;;;;;;;;;20.60;43.10;;;;;;683121;28;1485;-84
2021/12/18 00:09:14;;;;;;;;;;;20.50;43.10;;;;;;684429;28;1639;-85
2021/12/18 00:09:35;;;;;;;;;;;20.60;43.10;;;;;;683293;28;1524;-84
2021/12/18 00:09:55;;;;;;;;;;;20.60;43.10;;;;;;680984;28;1497;-85
2021/12/18 00:10:22;;;;;;;;;;;20.60;43.10;;;;;;683178;28;1490;-86
2021/12/18 00:10:45;;;;;;;;;;;20.60;43.10;;;;;;685848;28;1278;-85
2021/12/18 00:11:06;;;;;;;;;;;20.60;43.10;;;;;;685171;28;1320;-84
2021/12/18 00:11:27;;;;;;;;;;;20.50;43.10;;;;;;684608;28;1372;-83
2021/12/18 00:11:48;;;;;;;;;;;20.50;43.10;;;;;;685832;28;1325;-83
2021/12/18 00:12:09;;;;;;;;;;;20.60;43.10;;;;;;685462;28;1328;-84
2021/12/18 00:12:30;;;;;;;;;;;20.50;43.10;;;;;;685640;28;1214;-84
2021/12/18 00:12:51;;;;;;;;;;;20.50;43.10;;;;;;685870;28;1574;-85
2021/12/18 00:13:13;;;;;;;;;;;20.60;43.10;;;;;;683802;28;1346;-84
2021/12/18 00:13:33;;;;;;;;;;;20.60;43.20;;;;;;682122;29;1255;-85
2021/12/18 00:13:54;;;;;;;;;;;20.50;43.10;;;;;;683489;29;795;-85
2021/12/18 00:14:15;;;;;;;;;;;20.50;43.10;;;;;;683302;29;1425;-84
2021/12/18 00:14:36;;;;;;;;;;;20.50;43.10;;;;;;683691;28;1416;-84
2021/12/18 00:14:56;;;;;;;;;;;20.50;43.10;;;;;;684430;28;1302;-84
2021/12/18 00:15:18;;;;;;;;;;;20.50;43.10;;;;;;686356;28;902;-84
2021/12/18 00:15:38;;;;;;;;;;;20.50;43.20;;;;;;685949;28;1345;-84
2021/12/18 00:15:59;;;;;;;;;;;20.50;43.20;;;;;;682832;28;1502;-85
2021/12/18 00:16:20;;;;;;;;;;;20.50;43.20;;;;;;680469;29;1329;-84
2021/12/18 00:16:41;;;;;;;;;;;20.50;43.10;;;;;;680407;29;1336;-82
2021/12/18 00:17:03;;;;;;;;;;;20.50;43.10;;;;;;680177;28;1330;-84
2021/12/18 00:17:24;;;;;;;;;;;20.50;43.10;;;;;;682233;28;1470;-85
2021/12/18 00:17:44;;;;;;;;;;;20.50;43.20;;;;;;685242;28;1519;-84
2021/12/18 00:18:05;;;;;;;;;;;20.50;43.20;;;;;;680997;29;1517;-86
2021/12/18 00:18:26;;;;;;;;;;;20.50;43.20;;;;;;683035;29;1469;-84
2021/12/18 00:18:50;;;;;;;;;;;20.50;43.20;;;;;;682342;28;1318;-85
2021/12/18 00:19:13;;;;;;;;;;;20.50;43.20;;;;;;683264;29;1437;-85
2021/12/18 00:19:34;;;;;;;;;;;20.50;43.10;;;;;;680964;29;1476;-83
2021/12/18 00:19:57;;;;;;;;;;;20.60;43.10;;;;;;683147;28;1581;-82
2021/12/18 00:20:18;;;;;;;;;;;20.50;43.10;;;;;;684664;28;1504;-87
2021/12/18 00:20:39;;;;;;;;;;;20.50;43.10;;;;;;684866;28;1472;-86
2021/12/18 00:20:59;;;;;;;;;;;20.50;43.10;;;;;;684641;28;1568;-85
2021/12/18 00:21:21;;;;;;;;;;;20.50;43.20;;;;;;684814;28;1521;-84
2021/12/18 00:21:42;;;;;;;;;;;20.50;43.10;;;;;;684760;28;1538;-82
2021/12/18 00:22:02;;;;;;;;;;;20.50;43.10;;;;;;685739;28;1466;-84
2021/12/18 00:22:23;;;;;;;;;;;20.50;43.10;;;;;;685632;28;1535;-86
2021/12/18 00:22:44;;;;;;;;;;;20.50;43.00;;;;;;683086;28;1344;-83
2021/12/18 00:23:05;;;;;;;;;;;20.50;43.10;;;;;;683594;29;1575;-84
2021/12/18 00:23:26;;;;;;;;;;;20.50;43.10;;;;;;683514;29;1654;-84
2021/12/18 00:23:47;;;;;;;;;;;20.50;43.00;;;;;;682894;28;1475;-83
2021/12/18 00:24:08;;;;;;;;;;;20.50;43.20;;;;;;683283;28;1499;-83
2021/12/18 00:24:29;;;;;;;;;;;20.40;43.00;;;;;;685186;28;1558;-85
2021/12/18 00:24:49;;;;;;;;;;;20.50;43.10;;;;;;680669;29;1521;-83
2021/12/18 00:25:13;;;;;;;;;;;20.50;43.10;;;;;;679784;29;1421;-85
2021/12/18 00:25:34;;;;;;;;;;;20.50;43.00;;;;;;683160;29;1527;-85
2021/12/18 00:25:54;;;;;;;;;;;20.50;43.00;;;;;;679117;29;1309;-85
2021/12/18 00:26:15;;;;;;;;;;;20.50;42.90;;;;;;678580;29;1476;-87
2021/12/18 00:26:36;;;;;;;;;;;20.50;43.10;;;;;;680096;29;1436;-85
2021/12/18 00:26:57;;;;;;;;;;;20.50;43.10;;;;;;680913;29;1351;-85
2021/12/18 00:27:20;;;;;;;;;;;20.50;43.00;;;;;;682715;29;1495;-86
2021/12/18 00:27:41;;;;;;;;;;;20.50;43.00;;;;;;684839;28;1348;-83
2021/12/18 00:28:04;;;;;;;;;;;20.50;43.10;;;;;;684033;28;1467;-83
2021/12/18 00:28:25;;;;;;;;;;;20.50;43.10;;;;;;682768;29;1963;-86
2021/12/18 00:28:47;;;;;;;;;;;20.50;43.10;;;;;;682279;28;1269;-85
2021/12/18 00:29:08;;;;;;;;;;;20.50;43.00;;;;;;682053;29;1423;-84
2021/12/18 00:29:28;;;;;;;;;;;20.50;43.00;;;;;;680143;29;1254;-84
2021/12/18 00:29:49;;;;;;;;;;;20.50;43.00;;;;;;680745;29;1373;-85
2021/12/18 00:30:10;;;;;;;;;;;20.50;43.00;;;;;;682889;28;1492;-84
2021/12/18 00:30:33;;;;;;;;;;;20.50;43.00;;;;;;682884;28;1334;-86
2021/12/18 00:30:54;;;;;;;;;;;20.50;43.00;;;;;;680460;29;1425;-83
2021/12/18 00:31:15;;;;;;;;;;;20.50;43.00;;;;;;680700;29;1241;-85
2021/12/18 00:31:35;;;;;;;;;;;20.50;43.00;;;;;;679923;29;1497;-85
2021/12/18 00:31:58;;;;;;;;;;;20.50;43.00;;;;;;678897;29;1527;-84
2021/12/18 00:32:19;;;;;;;;;;;20.50;42.80;;;;;;680110;29;1560;-84
2021/12/18 00:32:40;;;;;;;;;;;20.50;42.80;;;;;;680172;29;1567;-85
2021/12/18 00:33:01;;;;;;;;;;;20.50;42.80;;;;;;678263;29;1607;-85
2021/12/18 00:33:24;;;;;;;;;;;20.50;42.80;;;;;;679844;29;1429;-83
2021/12/18 00:33:45;;;;;;;;;;;20.50;42.80;;;;;;678772;29;1597;-87
2021/12/18 00:34:05;;;;;;;;;;;20.50;42.80;;;;;;680055;29;1267;-85
2021/12/18 00:34:31;;;;;;;;;;;20.50;42.80;;;;;;680205;29;1422;-84
2021/12/18 00:34:55;;;;;;;;;;;20.50;44.00;;;;;;677663;29;1325;-86
2021/12/18 00:35:17;;;;;;;;;;;20.50;42.90;;;;;;678610;29;1429;-83
2021/12/18 00:35:38;;;;;;;;;;;20.50;42.90;;;;;;681399;28;1398;-82
2021/12/18 00:35:58;;;;;;;;;;;20.50;42.80;;;;;;682166;29;1395;-83
2021/12/18 00:36:19;;;;;;;;;;;20.50;42.80;;;;;;682890;29;1486;-86
2021/12/18 00:36:39;;;;;;;;;;;20.50;42.90;;;;;;681021;29;1389;-86
2021/12/18 00:37:00;;;;;;;;;;;20.50;42.80;;;;;;680468;29;1274;-86
2021/12/18 00:37:21;;;;;;;;;;;20.50;42.80;;;;;;680492;29;1262;-84
2021/12/18 00:37:41;;;;;;;;;;;20.50;42.80;;;;;;679599;29;1306;-85
2021/12/18 00:38:03;;;;;;;;;;;20.50;42.80;;;;;;680168;29;1207;-82
2021/12/18 00:38:29;;;;;;;;;;;20.50;42.80;;;;;;683995;28;1377;-86
2021/12/18 00:38:49;;;;;;;;;;;20.50;42.80;;;;;;686569;28;1293;-84
2021/12/18 00:39:10;;;;;;;;;;;20.50;42.90;;;;;;681908;29;1328;-83
2021/12/18 00:39:32;;;;;;;;;;;20.50;43.00;;;;;;682708;29;1270;-85
2021/12/18 00:39:58;;;;;;;;;;;20.50;42.90;;;;;;682982;29;1384;-86
2021/12/18 00:40:23;;;;;;;;;;;20.50;42.90;;;;;;681251;29;1302;-85
2021/12/18 00:40:46;;;;;;;;;;;20.50;42.80;;;;;;681972;29;1337;-86
2021/12/18 00:41:16;;;;;;;;;;;20.50;42.80;;;;;;683002;29;1258;-85
2021/12/18 00:41:59;;;;;;;;;;;20.50;42.80;;;;;;679159;28;1242;-86
2021/12/18 00:43:02;;;;;;;;;;;20.50;42.80;;;;;;688626;28;1383;-86
2021/12/18 00:43:30;;;;;;;;;;;20.50;42.90;;;;;;686114;28;1391;-83
2021/12/18 00:44:03;;;;;;;;;;;20.50;42.80;;;;;;683668;28;1390;-85
2021/12/18 00:44:24;;;;;;;;;;;20.50;42.70;;;;;;683096;29;1676;-87
2021/12/18 00:44:44;;;;;;;;;;;20.50;42.80;;;;;;683147;29;1373;-87
2021/12/18 00:45:07;;;;;;;;;;;20.40;42.70;;;;;;683333;28;1431;-85
2021/12/18 00:45:29;;;;;;;;;;;20.50;42.80;;;;;;685939;28;1415;-87
2021/12/18 00:45:50;;;;;;;;;;;20.40;42.70;;;;;;688176;28;1502;-86
2021/12/18 00:46:10;;;;;;;;;;;20.50;42.90;;;;;;685608;28;1301;-83
2021/12/18 00:46:33;;;;;;;;;;;20.50;42.90;;;;;;683772;28;1257;-85
2021/12/18 00:46:53;;;;;;;;;;;20.50;42.80;;;;;;680670;28;1302;-84
2021/12/18 00:47:14;;;;;;;;;;;20.50;43.80;;;;;;683310;29;1427;-87
2021/12/18 00:47:35;;;;;;;;;;;20.50;42.60;;;;;;683313;29;1313;-86
2021/12/18 00:47:56;;;;;;;;;;;20.40;42.60;;;;;;683105;28;1325;-85
2021/12/18 00:48:16;;;;;;;;;;;20.50;42.80;;;;;;686198;28;1902;-84
2021/12/18 00:48:37;;;;;;;;;;;20.50;42.80;;;;;;685800;28;1300;-86
2021/12/18 00:48:57;;;;;;;;;;;20.50;42.80;;;;;;685945;28;1301;-86
2021/12/18 00:49:19;;;;;;;;;;;20.40;42.70;;;;;;682590;29;1380;-85
2021/12/18 00:49:39;;;;;;;;;;;20.40;42.70;;;;;;683092;29;1258;-87
2021/12/18 00:50:00;;;;;;;;;;;20.40;42.70;;;;;;683059;29;1370;-86
2021/12/18 00:50:26;;;;;;;;;;;20.40;42.70;;;;;;683640;28;1343;-86
2021/12/18 00:50:47;;;;;;;;;;;20.40;42.60;;;;;;682615;29;1375;-86
2021/12/18 00:51:08;;;;;;;;;;;20.40;42.50;;;;;;683437;28;1482;-84
2021/12/18 00:51:28;;;;;;;;;;;20.40;42.60;;;;;;680291;29;1417;-84
2021/12/18 00:51:49;;;;;;;;;;;20.40;42.80;;;;;;683467;28;1429;-84
2021/12/18 00:52:11;;;;;;;;;;;20.40;42.90;;;;;;685205;28;1245;-85
2021/12/18 00:52:32;;;;;;;;;;;20.40;42.80;;;;;;679943;29;1497;-85
2021/12/18 00:52:55;;;;;;;;;;;20.40;42.80;;;;;;680087;29;1512;-85
2021/12/18 00:53:16;;;;;;;;;;;20.40;42.80;;;;;;679046;29;1563;-84
2021/12/18 00:53:37;;;;;;;;;;;20.40;42.80;;;;;;679910;29;1231;-85
2021/12/18 00:53:58;;;;;;;;;;;20.40;42.70;;;;;;679902;29;1450;-84
2021/12/18 00:54:18;;;;;;;;;;;20.40;42.60;;;;;;678847;29;1358;-84
2021/12/18 00:54:39;;;;;;;;;;;20.40;42.80;;;;;;682434;28;1403;-86
2021/12/18 00:55:02;;;;;;;;;;;20.40;42.70;;;;;;683145;29;1464;-85
2021/12/18 00:55:25;;;;;;;;;;;20.50;42.80;;;;;;682960;28;1423;-85
2021/12/18 00:55:51;;;;;;;;;;;20.40;42.80;;;;;;681634;28;1235;-83
2021/12/18 00:56:12;;;;;;;;;;;20.50;42.70;;;;;;684568;28;1430;-84
2021/12/18 00:56:33;;;;;;;;;;;20.50;42.70;;;;;;685768;28;1654;-84
2021/12/18 00:56:53;;;;;;;;;;;20.40;42.70;;;;;;685546;28;1360;-85
2021/12/18 00:57:14;;;;;;;;;;;20.40;42.70;;;;;;683102;29;1460;-86
2021/12/18 00:57:37;;;;;;;;;;;20.40;42.70;;;;;;683100;28;1575;-85
2021/12/18 00:57:57;;;;;;;;;;;20.40;42.60;;;;;;685545;28;1340;-84
2021/12/18 00:58:18;;;;;;;;;;;20.40;42.70;;;;;;684346;28;1269;-84
2021/12/18 00:58:39;;;;;;;;;;;20.40;42.70;;;;;;685208;28;1368;-85
2021/12/18 00:59:00;;;;;;;;;;;20.40;43.70;;;;;;686482;28;810;-82
2021/12/18 00:59:20;;;;;;;;;;;20.40;42.70;;;;;;688699;28;735;-82
2021/12/18 00:59:41;;;;;;;;;;;20.40;42.80;;;;;;685782;28;1304;-83
2021/12/18 01:00:03;;;;;;;;;;;20.40;42.70;;;;;;682819;29;1249;-83
2021/12/18 01:00:24;;;;;;;;;;;20.40;42.70;;;;;;680416;29;1230;-83
2021/12/18 01:00:46;;;;;;;;;;;20.40;42.70;;;;;;681201;29;1395;-84
2021/12/18 01:01:09;;;;;;;;;;;20.40;42.70;;;;;;682127;29;1348;-84
2021/12/18 01:01:31;;;;;;;;;;;20.40;42.80;;;;;;678649;29;1567;-84
2021/12/18 01:01:52;;;;;;;;;;;20.40;42.90;;;;;;679516;28;1293;-84
2021/12/18 01:02:13;;;;;;;;;;;20.40;42.80;;;;;;684355;28;1613;-85
2021/12/18 01:02:33;;;;;;;;;;;20.40;42.90;;;;;;682718;28;1539;-84
2021/12/18 01:02:57;;;;;;;;;;;20.40;42.80;;;;;;682970;29;1489;-86
2021/12/18 01:03:20;;;;;;;;;;;20.40;42.80;;;;;;684183;28;1349;-83
2021/12/18 01:03:42;;;;;;;;;;;20.40;42.80;;;;;;682519;29;1441;-84
2021/12/18 01:04:03;;;;;;;;;;;20.40;42.80;;;;;;683191;29;1543;-80
2021/12/18 01:04:23;;;;;;;;;;;20.40;42.80;;;;;;684380;28;779;-83
2021/12/18 01:04:44;;;;;;;;;;;20.40;42.80;;;;;;685910;28;1554;-85
2021/12/18 01:05:05;;;;;;;;;;;20.40;42.80;;;;;;688128;28;1466;-85
2021/12/18 01:05:27;;;;;;;;;;;20.40;42.70;;;;;;688485;28;1379;-85
2021/12/18 01:05:48;;;;;;;;;;;20.40;42.60;;;;;;688696;28;1485;-84
2021/12/18 01:06:09;;;;;;;;;;;20.40;42.60;;;;;;683562;28;1422;-85
2021/12/18 01:06:29;;;;;;;;;;;20.40;42.70;;;;;;688668;28;1311;-82
2021/12/18 01:06:50;;;;;;;;;;;20.40;42.80;;;;;;688692;28;1378;-82
2021/12/18 01:07:10;;;;;;;;;;;20.40;42.70;;;;;;688666;28;1334;-84
2021/12/18 01:07:31;;;;;;;;;;;20.40;42.80;;;;;;688679;28;1429;-83
2021/12/18 01:07:54;;;;;;;;;;;20.40;42.70;;;;;;688385;28;1351;-84
2021/12/18 01:08:18;;;;;;;;;;;20.40;42.70;;;;;;685668;28;1964;-83
2021/12/18 01:08:39;;;;;;;;;;;20.40;42.80;;;;;;685801;28;1312;-82
2021/12/18 01:09:00;;;;;;;;;;;20.40;42.70;;;;;;685857;28;1343;-84
2021/12/18 01:09:29;;;;;;;;;;;20.40;42.80;;;;;;685800;28;1419;-84
2021/12/18 01:11:44;;;;;;;;;;;20.40;42.80;;;;;;685050;28;1142;-84
2021/12/18 01:12:06;;;;;;;;;;;20.40;42.80;;;;;;688753;28;1394;-85
2021/12/18 01:12:33;;;;;;;;;;;20.40;42.90;;;;;;688467;28;1288;-89
2021/12/18 01:12:56;;;;;;;;;;;20.40;42.80;;;;;;684522;28;1250;-82
2021/12/18 01:13:22;;;;;;;;;;;20.40;42.90;;;;;;688459;28;1355;-83
2021/12/18 01:14:20;;;;;;;;;;;20.40;42.80;;;;;;688311;28;1367;-85
2021/12/18 01:14:39;;;;;;;;;;;20.40;42.90;;;;;;687499;28;1186;-84
2021/12/18 01:15:37;;;;;;;;;;;20.40;42.90;;;;;;685721;28;1124;-85
2021/12/18 01:16:07;;;;;;;;;;;20.40;42.90;;;;;;688682;28;1350;-84
2021/12/18 01:16:38;;;;;;;;;;;20.40;43.00;;;;;;688425;28;1396;-86
2021/12/18 01:22:43;;;;;;;;;;;20.30;44.00;;;;;;687731;28;1143;-88
2021/12/18 01:23:06;;;;;;;;;;;20.30;43.00;;;;;;693753;28;1336;-88
2021/12/18 01:23:26;;;;;;;;;;;20.30;43.00;;;;;;688688;28;1388;-85
2021/12/18 01:23:47;;;;;;;;;;;20.30;43.00;;;;;;688083;28;1517;-86
2021/12/18 01:24:09;;;;;;;;;;;20.30;42.90;;;;;;684907;28;1459;-84
2021/12/18 01:24:30;;;;;;;;;;;20.30;43.60;;;;;;685757;28;1285;-87
2021/12/18 01:24:51;;;;;;;;;;;20.30;43.30;;;;;;685759;28;1333;-89
2021/12/18 01:25:12;;;;;;;;;;;20.30;43.30;;;;;;686241;28;1372;-85
2021/12/18 01:25:33;;;;;;;;;;;20.30;43.50;;;;;;688450;28;1399;-86
2021/12/18 01:25:54;;;;;;;;;;;20.30;43.70;;;;;;686336;28;1371;-85
2021/12/18 01:26:14;;;;;;;;;;;20.30;43.80;;;;;;684819;28;1352;-88
2021/12/18 01:26:35;;;;;;;;;;;20.30;43.60;;;;;;682186;28;1310;-87
2021/12/18 01:26:55;;;;;;;;;;;20.30;44.10;;;;;;685820;28;1349;-87
2021/12/18 01:27:16;;;;;;;;;;;20.30;44.60;;;;;;685914;28;1380;-85
2021/12/18 01:27:37;;;;;;;;;;;20.40;45.10;;;;;;686170;28;1367;-86
2021/12/18 01:27:57;;;;;;;;;;;20.30;43.70;;;;;;688698;28;1336;-85
2021/12/18 01:28:18;;;;;;;;;;;20.30;44.10;;;;;;691314;28;1902;-88
2021/12/18 01:28:38;;;;;;;;;;;20.40;44.10;;;;;;694242;28;1004;-86
2021/12/18 01:28:59;;;;;;;;;;;20.30;44.00;;;;;;694095;28;583;-86
2021/12/18 01:29:19;;;;;;;;;;;20.30;44.10;;;;;;689592;28;1269;-84
2021/12/18 01:29:40;;;;;;;;;;;20.40;44.60;;;;;;687276;28;1258;-85
2021/12/18 01:30:01;;;;;;;;;;;20.40;44.00;;;;;;686889;28;1325;-89
2021/12/18 01:30:22;;;;;;;;;;;20.40;44.00;;;;;;685950;28;934;-85
2021/12/18 01:30:42;;;;;;;;;;;20.40;43.80;;;;;;685988;28;882;-89
2021/12/18 01:31:03;;;;;;;;;;;20.40;43.80;;;;;;685960;28;969;-85
2021/12/18 01:31:24;;;;;;;;;;;20.40;44.40;;;;;;686389;28;823;-88
2021/12/18 01:31:44;;;;;;;;;;;20.40;45.00;;;;;;688788;28;846;-85
2021/12/18 01:32:05;;;;;;;;;;;20.40;44.80;;;;;;687706;28;1322;-84
2021/12/18 01:32:27;;;;;;;;;;;20.40;44.40;;;;;;688647;28;787;-88
2021/12/18 01:32:49;;;;;;;;;;;20.40;43.90;;;;;;688657;28;838;-85
2021/12/18 01:33:09;;;;;;;;;;;20.40;45.20;;;;;;688634;28;526;-89
2021/12/18 01:33:30;;;;;;;;;;;20.40;44.90;;;;;;688688;28;1004;-87
2021/12/18 01:33:51;;;;;;;;;;;20.40;45.90;;;;;;688764;28;831;-91
2021/12/18 01:34:11;;;;;;;;;;;20.40;48.00;;;;;;688555;28;1332;-89
2021/12/18 01:36:07;;;;;;;;;;;20.40;45.90;;;;;;689327;28;641;-89
2021/12/18 01:36:29;;;;;;;;;;;20.40;45.90;;;;;;688958;28;1104;-85
2021/12/18 01:36:49;;;;;;;;;;;20.40;46.90;;;;;;687165;28;866;-83
2021/12/18 01:37:10;;;;;;;;;;;20.40;47.00;;;;;;688319;28;1362;-80
2021/12/18 01:37:31;;;;;;;;;;;20.40;49.50;;;;;;685313;29;1322;-81
2021/12/18 01:37:51;;;;;;;;;;;20.40;51.60;;;;;;686359;28;1321;-81
2021/12/18 01:38:12;;;;;;;;;;;20.40;48.70;;;;;;691134;28;1072;-81
2021/12/18 01:38:35;;;;;;;;;;;20.40;46.30;;;;;;691629;28;802;-84
2021/12/18 01:38:56;;;;;;;;;;;20.40;46.30;;;;;;690830;28;1141;-84
2021/12/18 01:39:17;;;;;;;;;;;20.40;48.00;;;;;;691920;28;901;-81
2021/12/18 01:39:37;;;;;;;;;;;20.40;45.90;;;;;;693757;28;764;-84
2021/12/18 01:39:58;;;;;;;;;;;20.40;46.70;;;;;;692383;28;1316;-86
2021/12/18 01:40:21;;;;;;;;;;;20.40;46.10;;;;;;692797;28;1349;-82
2021/12/18 01:40:42;;;;;;;;;;;20.40;46.80;;;;;;693414;28;1243;-79
2021/12/18 01:41:04;;;;;;;;;;;20.40;47.70;;;;;;694005;28;969;-82
2021/12/18 01:41:24;;;;;;;;;;;20.40;50.40;;;;;;691205;28;1332;-86
2021/12/18 01:43:59;;;;;;;;;;;20.40;47.80;;;;;;689675;28;1389;-86
2021/12/18 01:45:15;;;;;;;;;;;20.40;48.30;;;;;;694704;28;739;-83
2021/12/18 01:46:47;;;;;;;;;;;20.40;57.30;;;;;;691922;28;851;-84
2021/12/18 01:51:46;;;;;;;;;;;20.70;60.00;;;;;;686158;29;875;-90
2021/12/18 01:52:19;;;;;;;;;;;20.70;59.80;;;;;;684923;29;883;-89
2021/12/18 01:52:40;;;;;;;;;;;20.60;58.60;;;;;;683246;29;1327;-86
2021/12/18 01:53:01;;;;;;;;;;;20.70;58.30;;;;;;683284;29;879;-86
2021/12/18 01:53:22;;;;;;;;;;;20.60;58.40;;;;;;682750;29;1399;-86
2021/12/18 01:53:42;;;;;;;;;;;20.60;58.10;;;;;;683238;29;1297;-84
2021/12/18 01:54:03;;;;;;;;;;;20.60;57.70;;;;;;683121;29;879;-84
2021/12/18 01:54:23;;;;;;;;;;;20.60;57.80;;;;;;683072;29;843;-87
2021/12/18 01:54:45;;;;;;;;;;;20.70;57.60;;;;;;683152;29;851;-83
2021/12/18 01:55:06;;;;;;;;;;;20.70;57.40;;;;;;683078;29;867;-84
2021/12/18 01:55:29;;;;;;;;;;;20.60;57.10;;;;;;682887;29;858;-86
2021/12/18 01:55:51;;;;;;;;;;;20.70;56.80;;;;;;683052;29;843;-84
2021/12/18 01:56:12;;;;;;;;;;;20.70;56.20;;;;;;681809;29;1244;-83
2021/12/18 01:56:33;;;;;;;;;;;20.70;56.40;;;;;;680338;29;890;-86
2021/12/18 01:56:53;;;;;;;;;;;20.60;56.40;;;;;;680319;29;846;-85
2021/12/18 01:57:14;;;;;;;;;;;20.70;56.00;;;;;;680594;29;858;-84
2021/12/18 01:57:35;;;;;;;;;;;20.60;55.90;;;;;;680256;29;863;-85
2021/12/18 01:57:55;;;;;;;;;;;20.60;55.90;;;;;;680428;29;807;-81
2021/12/18 01:58:21;;;;;;;;;;;20.70;55.90;;;;;;680304;29;863;-78
2021/12/18 01:58:44;;;;;;;;;;;20.70;55.60;;;;;;680456;29;891;-85
2021/12/18 01:59:05;;;;;;;;;;;20.60;55.30;;;;;;680457;29;844;-83
2021/12/18 01:59:32;;;;;;;;;;;20.60;55.40;;;;;;680256;29;1494;-86
2021/12/18 01:59:53;;;;;;;;;;;20.60;55.20;;;;;;680297;29;812;-85
2021/12/18 02:00:15;;;;;;;;;;;20.60;54.60;;;;;;680439;29;1095;-85
2021/12/18 02:00:37;;;;;;;;;;;20.70;55.20;;;;;;680285;29;1081;-85
2021/12/18 02:00:59;;;;;;;;;;;20.60;55.30;;;;;;680318;29;952;-85
2021/12/18 02:01:20;;;;;;;;;;;20.60;55.00;;;;;;680214;29;817;-85
2021/12/18 02:01:40;;;;;;;;;;;20.60;54.70;;;;;;680288;29;903;-83
2021/12/18 02:02:01;;;;;;;;;;;20.60;54.90;;;;;;680398;29;891;-80
2021/12/18 02:02:22;;;;;;;;;;;20.60;54.50;;;;;;680327;29;890;-86
2021/12/18 02:02:43;;;;;;;;;;;20.60;53.90;;;;;;680335;29;757;-75
2021/12/18 02:03:04;;;;;;;;;;;20.50;54.20;;;;;;680264;29;843;-85
2021/12/18 02:03:24;;;;;;;;;;;20.60;54.40;;;;;;680331;29;842;-83
2021/12/18 02:03:46;;;;;;;;;;;20.60;54.50;;;;;;680225;29;788;-79
2021/12/18 02:04:07;;;;;;;;;;;20.60;53.80;;;;;;680331;29;859;-87
2021/12/18 02:04:28;;;;;;;;;;;20.60;53.70;;;;;;680261;29;1351;-83
2021/12/18 02:04:48;;;;;;;;;;;20.60;53.00;;;;;;680319;29;891;-87
2021/12/18 02:05:09;;;;;;;;;;;20.60;53.60;;;;;;680223;29;875;-85
2021/12/18 02:05:30;;;;;;;;;;;20.60;53.70;;;;;;680100;29;911;-86
2021/12/18 02:05:52;;;;;;;;;;;20.60;53.70;;;;;;680244;29;887;-85
2021/12/18 02:06:13;;;;;;;;;;;20.60;53.70;;;;;;680392;29;816;-84
2021/12/18 02:06:33;;;;;;;;;;;20.60;53.40;;;;;;680200;29;1131;-83
2021/12/18 02:06:54;;;;;;;;;;;20.60;53.30;;;;;;680297;29;528;-83
2021/12/18 02:07:15;;;;;;;;;;;20.60;53.70;;;;;;680364;29;839;-78
2021/12/18 02:07:36;;;;;;;;;;;20.60;53.30;;;;;;680343;29;800;-84
2021/12/18 02:07:57;;;;;;;;;;;20.50;53.20;;;;;;680200;29;910;-84
2021/12/18 02:08:19;;;;;;;;;;;20.50;53.20;;;;;;680171;29;1954;-85
2021/12/18 02:08:43;;;;;;;;;;;20.60;53.20;;;;;;680368;29;808;-84
2021/12/18 02:09:04;;;;;;;;;;;20.50;53.50;;;;;;679883;29;988;-85
2021/12/18 02:09:30;;;;;;;;;;;20.50;53.20;;;;;;680242;29;816;-83
2021/12/18 02:10:07;;;;;;;;;;;20.50;51.70;;;;;;680281;29;819;-82
2021/12/18 02:10:31;;;;;;;;;;;20.50;51.30;;;;;;680196;29;883;-87
2021/12/18 02:10:58;;;;;;;;;;;20.50;51.80;;;;;;680267;29;871;-86
2021/12/18 02:11:41;;;;;;;;;;;20.50;52.20;;;;;;680373;29;824;-86
2021/12/18 02:12:02;;;;;;;;;;;20.50;50.50;;;;;;680311;29;815;-86
2021/12/18 02:12:30;;;;;;;;;;;20.50;51.00;;;;;;679670;29;1430;-88
2021/12/18 02:13:08;;;;;;;;;;;20.50;51.60;;;;;;680326;29;859;-83
2021/12/18 02:14:08;;;;;;;;;;;20.40;51.90;;;;;;680275;29;851;-85
2021/12/18 02:19:49;;;;;;;;;;;20.40;49.40;;;;;;677635;29;1148;-85
2021/12/18 02:20:41;;;;;;;;;;;20.30;48.10;;;;;;677343;29;929;-83
2021/12/18 02:20:58;;;;;;;;;;;20.30;47.60;;;;;;677392;29;1172;-84
2021/12/18 02:21:21;;;;;;;;;;;20.30;49.10;;;;;;677637;29;879;-82
2021/12/18 02:21:42;;;;;;;;;;;20.40;48.20;;;;;;677633;29;1181;-81
2021/12/18 02:22:03;;;;;;;;;;;20.30;47.70;;;;;;677686;29;753;-86
2021/12/18 02:22:26;;;;;;;;;;;20.30;47.40;;;;;;677691;29;816;-84
2021/12/18 02:22:46;;;;;;;;;;;20.30;47.20;;;;;;677581;29;922;-85
2021/12/18 02:23:07;;;;;;;;;;;20.30;47.70;;;;;;677824;29;906;-85
2021/12/18 02:23:28;;;;;;;;;;;20.40;48.90;;;;;;677652;29;874;-85
2021/12/18 02:23:49;;;;;;;;;;;20.30;47.90;;;;;;677570;29;887;-85
2021/12/18 02:24:10;;;;;;;;;;;20.30;47.20;;;;;;677748;29;879;-85
2021/12/18 02:24:32;;;;;;;;;;;20.30;47.30;;;;;;677719;29;871;-81
2021/12/18 02:24:53;;;;;;;;;;;20.30;46.70;;;;;;677454;29;1033;-85
2021/12/18 02:25:14;;;;;;;;;;;20.30;47.70;;;;;;677782;29;863;-83
2021/12/18 02:25:36;;;;;;;;;;;20.30;48.10;;;;;;677733;29;939;-86
2021/12/18 02:25:56;;;;;;;;;;;20.30;46.80;;;;;;680009;29;1001;-82
2021/12/18 02:26:17;;;;;;;;;;;20.30;46.40;;;;;;682919;29;961;-81
2021/12/18 02:26:37;;;;;;;;;;;20.30;46.70;;;;;;683052;29;803;-83
2021/12/18 02:26:58;;;;;;;;;;;20.30;46.80;;;;;;682911;28;811;-80
2021/12/18 02:27:19;;;;;;;;;;;20.30;46.70;;;;;;680203;29;1490;-83
2021/12/18 02:27:40;;;;;;;;;;;20.30;46.40;;;;;;680371;29;863;-83
2021/12/18 02:28:01;;;;;;;;;;;20.30;47.40;;;;;;680286;29;819;-87
2021/12/18 02:28:24;;;;;;;;;;;20.30;46.70;;;;;;680164;29;1911;-87
2021/12/18 02:28:48;;;;;;;;;;;20.30;46.80;;;;;;680392;29;910;-81
2021/12/18 02:29:13;;;;;;;;;;;20.30;47.00;;;;;;681427;29;823;-83
2021/12/18 02:29:36;;;;;;;;;;;20.30;47.60;;;;;;682792;29;860;-80
2021/12/18 02:29:58;;;;;;;;;;;20.30;46.80;;;;;;682978;29;854;-80
2021/12/18 02:30:23;;;;;;;;;;;20.30;46.80;;;;;;682957;29;882;-84
2021/12/18 02:30:44;;;;;;;;;;;20.30;46.60;;;;;;682960;29;848;-84
2021/12/18 02:31:05;;;;;;;;;;;20.30;46.30;;;;;;682902;29;1016;-86
2021/12/18 02:31:25;;;;;;;;;;;20.30;46.50;;;;;;682853;29;1103;-85
2021/12/18 02:31:46;;;;;;;;;;;20.30;46.80;;;;;;682984;29;839;-84
2021/12/18 02:32:08;;;;;;;;;;;20.30;46.40;;;;;;682892;29;876;-83
2021/12/18 02:32:28;;;;;;;;;;;20.30;46.20;;;;;;682846;29;928;-82
2021/12/18 02:32:49;;;;;;;;;;;20.30;46.70;;;;;;682956;29;894;-81
2021/12/18 02:33:10;;;;;;;;;;;20.30;46.50;;;;;;682926;29;819;-80
2021/12/18 02:33:30;;;;;;;;;;;20.30;46.10;;;;;;682908;29;503;-82
2021/12/18 02:33:51;;;;;;;;;;;20.30;46.10;;;;;;680107;29;1268;-81
2021/12/18 02:34:20;;;;;;;;;;;20.30;46.00;;;;;;680336;29;815;-84
2021/12/18 02:34:44;;;;;;;;;;;20.30;46.40;;;;;;680352;29;866;-84
2021/12/18 02:35:05;;;;;;;;;;;20.30;46.50;;;;;;680192;29;953;-83
2021/12/18 02:35:29;;;;;;;;;;;20.30;46.10;;;;;;680114;29;804;-83
2021/12/18 02:35:52;;;;;;;;;;;20.30;46.10;;;;;;684886;28;1359;-86
2021/12/18 02:36:21;;;;;;;;;;;20.30;46.10;;;;;;685588;28;877;-84
2021/12/18 02:36:46;;;;;;;;;;;20.30;46.00;;;;;;685665;28;826;-85
2021/12/18 02:37:10;;;;;;;;;;;20.30;46.60;;;;;;685612;28;811;-85
2021/12/18 02:37:35;;;;;;;;;;;20.30;46.30;;;;;;685570;28;878;-80
2021/12/18 02:38:09;;;;;;;;;;;20.30;46.00;;;;;;682801;29;1290;-82
2021/12/18 02:42:11;;;;;;;;;;;20.30;45.70;;;;;;674950;29;1634;-83
2021/12/18 02:42:33;;;;;;;;;;;20.20;46.00;;;;;;672306;29;1394;-85